createdAt,value
2023-03-06T00:03:31.221Z,97474.78
2023-03-06T00:07:52.941Z,97478.06
2023-03-06T00:11:18.012Z,97465.91
2023-03-06T00:15:09.107Z,97469.63
2023-03-06T00:18:50.134Z,97467.25
2023-03-06T00:22:25.170Z,97464.22
2023-03-06T00:26:17.607Z,97468.03
2023-03-06T00:30:17.474Z,97464.38
2023-03-06T00:34:07.159Z,97462.31
2023-03-06T00:37:40.103Z,97460.38
2023-03-06T00:41:30.158Z,97461.69
2023-03-06T00:53:20.795Z,97442.66
2023-03-06T00:57:38.159Z,97447.06
2023-03-06T01:01:35.881Z,97442.81
2023-03-06T01:05:25.262Z,97433.91
2023-03-06T01:09:39.415Z,97436.94
2023-03-06T01:13:30.710Z,97432.53
2023-03-06T01:18:16.877Z,97435.00
2023-03-06T01:22:17.616Z,97436.69
2023-03-06T01:26:34.451Z,97426.28
2023-03-06T01:35:00.019Z,97416.41
2023-03-06T01:38:54.672Z,97416.63
2023-03-06T01:43:29.080Z,97421.69
2023-03-06T01:47:18.462Z,97426.00
2023-03-06T01:51:19.306Z,97410.84
2023-03-06T01:59:53.392Z,97414.97
2023-03-06T02:03:54.361Z,97415.06
2023-03-06T02:07:28.337Z,97413.09
2023-03-06T02:11:07.531Z,97415.34
2023-03-06T02:14:48.146Z,97410.00
2023-03-06T02:19:03.370Z,97406.09
2023-03-06T02:23:13.323Z,97413.16
2023-03-06T02:27:04.608Z,97408.81
2023-03-06T02:31:12.329Z,97410.47
2023-03-06T02:35:47.462Z,97406.63
2023-03-06T02:39:40.279Z,97400.28
2023-03-06T02:44:05.553Z,97401.25
2023-03-06T02:47:48.393Z,97403.63
2023-03-06T02:52:20.567Z,97410.88
2023-03-06T02:56:24.790Z,97409.47
2023-03-06T02:59:53.978Z,97398.34
2023-03-06T03:03:57.889Z,97400.69
2023-03-06T03:07:48.878Z,97399.25
2023-03-06T03:11:56.691Z,97398.81
2023-03-06T03:16:04.787Z,97394.06
2023-03-06T03:19:51.569Z,97396.38
2023-03-06T03:23:42.606Z,97392.50
2023-03-06T03:27:24.646Z,97395.69
2023-03-06T03:30:31.328Z,97400.28
2023-03-06T03:34:35.136Z,97392.56
2023-03-06T03:38:26.201Z,97405.31
2023-03-06T03:42:53.205Z,97401.25
2023-03-06T03:47:02.450Z,97402.56
2023-03-06T03:50:34.571Z,97396.75
2023-03-06T03:54:09.435Z,97400.94
2023-03-06T03:58:21.525Z,97394.22
2023-03-06T04:02:39.250Z,97403.00
2023-03-06T04:07:06.128Z,97402.44
2023-03-06T04:15:12.436Z,97395.59
2023-03-06T04:19:57.236Z,97394.66
2023-03-06T04:24:21.909Z,97393.59
2023-03-06T04:28:38.637Z,97394.97
2023-03-06T04:33:12.429Z,97388.41
2023-03-06T04:37:39.629Z,97392.53
2023-03-06T04:42:05.566Z,97386.28
2023-03-06T04:45:59.416Z,97377.94
2023-03-06T04:49:09.335Z,97381.66
2023-03-06T04:52:13.044Z,97386.63
2023-03-06T05:01:30.253Z,97373.19
2023-03-06T05:05:11.354Z,97372.63
2023-03-06T05:08:45.679Z,97380.09
2023-03-06T05:12:26.224Z,97373.03
2023-03-06T05:17:13.809Z,97370.34
2023-03-06T05:21:37.652Z,97365.94
2023-03-06T05:26:11.148Z,97370.63
2023-03-06T05:30:04.477Z,97381.63
2023-03-06T05:33:37.719Z,97376.19
2023-03-06T05:37:34.353Z,97381.72
2023-03-06T05:42:03.786Z,97366.41
2023-03-06T05:45:48.079Z,97372.88
2023-03-06T05:49:52.299Z,97370.09
2023-03-06T05:53:54.766Z,97381.09
2023-03-06T05:58:07.402Z,97380.13
2023-03-06T06:02:48.508Z,97384.00
2023-03-06T06:10:53.303Z,97387.53
2023-03-06T06:14:36.405Z,97386.31
2023-03-06T06:18:41.271Z,97392.13
2023-03-06T06:22:35.213Z,97391.34
2023-03-06T06:26:36.178Z,97381.16
2023-03-06T06:30:17.453Z,97390.66
2023-03-06T06:33:31.556Z,97393.31
2023-03-06T06:36:51.051Z,97390.31
2023-03-06T06:40:21.149Z,97394.88
2023-03-06T06:43:58.687Z,97397.19
2023-03-06T06:47:53.057Z,97393.88
2023-03-06T06:51:11.939Z,97393.69
2023-03-06T06:54:20.415Z,97398.75
2023-03-06T06:57:29.694Z,97397.19
2023-03-06T07:00:40.153Z,97392.78
2023-03-06T07:03:49.311Z,97399.44
2023-03-06T07:06:59.727Z,97404.69
2023-03-06T07:10:06.126Z,97405.31
2023-03-06T07:13:13.307Z,97407.28
2023-03-06T07:16:35.051Z,97397.28
2023-03-06T07:19:39.656Z,97399.22
2023-03-06T07:22:58.273Z,97405.13
2023-03-06T07:26:10.462Z,97402.22
2023-03-06T07:29:48.031Z,97405.31
2023-03-06T07:33:28.726Z,97400.50
2023-03-06T07:53:04.624Z,97410.59
2023-03-06T07:56:44.325Z,97413.50
2023-03-06T08:00:18.697Z,97409.94
2023-03-06T08:09:06.029Z,97409.41
2023-03-06T08:12:43.707Z,97404.31
2023-03-06T08:16:41.700Z,97414.03
2023-03-06T08:20:32.116Z,97410.88
2023-03-06T08:23:41.864Z,97411.75
2023-03-06T08:26:47.137Z,97406.38
2023-03-06T08:30:03.517Z,97404.31
2023-03-06T08:33:18.633Z,97405.38
2023-03-06T08:36:51.608Z,97395.88
2023-03-06T08:40:15.950Z,97404.31
2023-03-06T08:43:30.213Z,97396.81
2023-03-06T08:46:51.597Z,97400.31
2023-03-06T08:50:46.237Z,97406.72
2023-03-06T08:58:03.315Z,97397.75
2023-03-06T09:02:52.683Z,97393.81
2023-03-06T09:06:27.043Z,97390.97
2023-03-06T09:10:32.283Z,97384.13
2023-03-06T09:13:50.790Z,97380.81
2023-03-06T09:17:01.902Z,97381.31
2023-03-06T09:20:11.730Z,97373.47
2023-03-06T09:23:45.266Z,97368.84
2023-03-06T09:27:20.594Z,97370.03
2023-03-06T09:31:11.012Z,97366.97
2023-03-06T09:34:32.601Z,97363.66
2023-03-06T09:38:31.054Z,97366.19
2023-03-06T09:42:22.380Z,97359.69
2023-03-06T09:45:59.540Z,97353.13
2023-03-06T09:49:44.784Z,97345.25
2023-03-06T09:57:56.705Z,97345.84
2023-03-06T10:02:49.347Z,97339.25
2023-03-06T10:06:51.804Z,97338.13
2023-03-06T10:10:41.205Z,97333.69
2023-03-06T10:15:23.824Z,97330.31
2023-03-06T10:18:38.715Z,97315.03
2023-03-06T10:30:47.264Z,97307.03
2023-03-06T10:34:21.277Z,97302.78
2023-03-06T10:38:32.215Z,97293.22
2023-03-06T10:42:42.220Z,97283.69
2023-03-06T10:46:25.879Z,97276.97
2023-03-06T10:49:54.550Z,97268.22
2023-03-06T10:53:59.413Z,97266.13
2023-03-06T10:59:07.974Z,97264.09
2023-03-06T11:03:02.521Z,97252.38
2023-03-06T11:06:59.321Z,97251.41
2023-03-06T11:11:01.913Z,97238.56
2023-03-06T11:14:47.044Z,97236.25
2023-03-06T11:18:36.949Z,97224.94
2023-03-06T11:27:42.896Z,97205.38
2023-03-06T11:32:23.719Z,97209.50
2023-03-06T11:49:09.426Z,97170.28
2023-03-06T11:53:07.005Z,97169.00
2023-03-06T11:57:39.767Z,97155.41
2023-03-06T12:06:06.861Z,97149.19
2023-03-06T12:09:44.067Z,97143.41
2023-03-06T12:13:36.180Z,97136.78
2023-03-06T12:17:28.808Z,97135.50
2023-03-06T12:20:59.743Z,97127.44
2023-03-06T12:24:47.319Z,97119.63
2023-03-06T12:28:41.889Z,97115.13
2023-03-06T12:32:22.683Z,97114.44
2023-03-06T12:36:40.105Z,97109.09
2023-03-06T12:40:44.693Z,97111.16
2023-03-06T12:44:29.622Z,97110.69
2023-03-06T12:48:01.509Z,97108.03
2023-03-06T12:51:15.552Z,97095.97
2023-03-06T12:55:12.149Z,97094.81
2023-03-06T12:59:09.993Z,97086.25
2023-03-06T13:03:03.816Z,97076.34
2023-03-06T13:07:05.092Z,97069.00
2023-03-06T13:11:09.045Z,97067.00
2023-03-06T13:15:05.193Z,97062.53
2023-03-06T13:33:45.751Z,97050.22
2023-03-06T13:38:47.666Z,97049.69
2023-03-06T13:42:53.098Z,97042.38
2023-03-06T13:47:05.900Z,97037.31
2023-03-06T13:50:47.350Z,97039.63
2023-03-06T14:00:09.593Z,97035.94
2023-03-06T14:12:52.057Z,97014.66
2023-03-06T14:16:59.839Z,97009.84
2023-03-06T14:21:16.431Z,97001.78
2023-03-06T14:26:47.411Z,96998.50
2023-03-06T14:35:45.312Z,96994.16
2023-03-06T14:38:54.961Z,96985.75
2023-03-06T14:42:10.925Z,96982.69
2023-03-06T14:46:13.731Z,96983.22
2023-03-06T14:50:32.872Z,96975.34
2023-03-06T14:54:21.599Z,96984.50
2023-03-06T14:57:50.521Z,96982.47
2023-03-06T15:01:38.635Z,96978.41
2023-03-06T15:04:48.625Z,96969.50
2023-03-06T15:07:58.450Z,96970.28
2023-03-06T15:11:03.872Z,96975.38
2023-03-06T15:14:19.052Z,96974.34
2023-03-06T15:18:06.491Z,96971.28
2023-03-06T15:21:23.690Z,96979.44
2023-03-06T15:24:39.309Z,96972.84
2023-03-06T15:27:52.656Z,96975.88
2023-03-06T15:31:25.498Z,96985.28
2023-03-06T15:35:27.098Z,96976.34
2023-03-06T15:38:56.491Z,96978.16
2023-03-06T15:42:04.958Z,96971.03
2023-03-06T15:53:09.919Z,96984.47
2023-03-06T15:56:38.376Z,96975.53
2023-03-06T15:59:54.158Z,96989.50
2023-03-06T16:03:02.101Z,96989.00
2023-03-06T16:14:32.193Z,96993.00
2023-03-06T16:18:05.395Z,96985.63
2023-03-06T16:21:20.436Z,96983.59
2023-03-06T16:24:46.533Z,96974.19
2023-03-06T16:28:20.061Z,96979.75
2023-03-06T16:31:47.063Z,96978.72
2023-03-06T16:34:52.132Z,96979.00
2023-03-06T16:38:16.768Z,96978.66
2023-03-06T16:42:05.931Z,96973.06
2023-03-06T16:45:33.909Z,96970.72
2023-03-06T16:48:40.028Z,96975.81
2023-03-06T16:52:26.330Z,96973.53
2023-03-06T16:55:37.992Z,96973.53
2023-03-06T16:58:52.537Z,96973.25
2023-03-06T17:02:29.496Z,96986.44
2023-03-06T17:05:34.873Z,96998.63
2023-03-06T17:08:40.488Z,96998.09
2023-03-06T17:11:46.892Z,97000.34
2023-03-06T17:14:51.176Z,97009.53
2023-03-06T17:17:55.490Z,97013.06
2023-03-06T17:21:06.408Z,97015.75
2023-03-06T17:24:12.477Z,97027.06
2023-03-06T17:27:17.369Z,97028.09
2023-03-06T17:30:21.092Z,97024.50
2023-03-06T17:33:26.178Z,97027.63
2023-03-06T17:36:30.632Z,97011.53
2023-03-06T17:39:37.604Z,97017.16
2023-03-06T17:42:41.308Z,97028.09
2023-03-06T17:45:45.672Z,97016.75
2023-03-06T17:48:49.381Z,97016.78
2023-03-06T17:51:53.501Z,97010.50
2023-03-06T17:54:58.356Z,97016.09
2023-03-06T17:58:02.225Z,97016.38
2023-03-06T18:01:14.461Z,97016.34
2023-03-06T18:04:18.213Z,97008.47
2023-03-06T18:07:22.397Z,97006.94
2023-03-06T18:10:27.908Z,97005.84
2023-03-06T18:13:32.224Z,97005.03
2023-03-06T18:16:39.725Z,97000.19
2023-03-06T18:19:47.566Z,96991.25
2023-03-06T18:22:51.632Z,96980.03
2023-03-06T18:26:09.484Z,96981.44
2023-03-06T18:29:14.148Z,96978.84
2023-03-06T18:32:17.875Z,96987.41
2023-03-06T18:35:22.006Z,96989.03
2023-03-06T18:38:25.861Z,96990.97
2023-03-06T18:41:33.278Z,96990.66
2023-03-06T18:44:41.583Z,96995.44
2023-03-06T18:47:47.397Z,97000.16
2023-03-06T18:50:54.296Z,97005.84
2023-03-06T18:53:59.432Z,97004.91
2023-03-06T18:57:04.553Z,96999.03
2023-03-06T19:00:10.014Z,96999.72
2023-03-06T19:03:14.619Z,96998.31
2023-03-06T19:06:20.541Z,96993.44
2023-03-06T19:09:25.928Z,96991.69
2023-03-06T19:12:35.617Z,96994.38
2023-03-06T19:15:45.909Z,96992.78
2023-03-06T19:18:50.467Z,96991.81
2023-03-06T19:21:54.455Z,97007.44
2023-03-06T19:24:58.535Z,96998.44
2023-03-06T19:28:04.883Z,97000.59
2023-03-06T19:31:11.762Z,97005.84
2023-03-06T19:34:16.915Z,97000.91
2023-03-06T19:37:26.755Z,97003.47
2023-03-06T19:40:30.829Z,96998.47
2023-03-06T19:43:38.520Z,96988.59
2023-03-06T19:46:43.567Z,96989.94
2023-03-06T19:49:48.382Z,96994.25
2023-03-06T19:52:53.278Z,96994.94
2023-03-06T19:56:05.139Z,97001.72
2023-03-06T19:59:10.532Z,96999.13
2023-03-06T20:02:16.161Z,96998.16
2023-03-06T20:05:20.168Z,97005.16
2023-03-06T20:08:26.036Z,97000.00
2023-03-06T20:11:31.286Z,97006.28
2023-03-06T20:14:37.997Z,96998.63
2023-03-06T20:17:42.773Z,97005.50
2023-03-06T20:20:47.283Z,96995.00
2023-03-06T20:23:52.968Z,96993.56
2023-03-06T20:27:01.772Z,96986.34
2023-03-06T20:30:10.318Z,96985.34
2023-03-06T20:37:32.939Z,96982.63
2023-03-06T20:47:00.094Z,96977.56
2023-03-06T20:51:05.952Z,96976.88
2023-03-06T20:54:43.816Z,96975.84
2023-03-06T21:02:44.121Z,96974.25
2023-03-06T21:06:06.104Z,96984.44
2023-03-06T21:09:17.841Z,96978.28
2023-03-06T21:12:23.542Z,96983.41
2023-03-06T21:15:37.029Z,96992.13
2023-03-06T21:19:04.279Z,96982.31
2023-03-06T21:22:20.655Z,96983.56
2023-03-06T21:25:28.286Z,96984.50
2023-03-06T21:28:44.160Z,96978.66
2023-03-06T21:32:02.527Z,96983.22
2023-03-06T21:35:19.175Z,96972.69
2023-03-06T21:38:47.166Z,96973.06
2023-03-06T21:41:59.774Z,96977.50
2023-03-06T21:45:10.065Z,96973.28
2023-03-06T21:48:35.994Z,96988.44
2023-03-06T21:51:48.651Z,96989.00
2023-03-06T21:55:10.835Z,96988.72
2023-03-06T22:03:31.562Z,97008.38
2023-03-06T22:06:46.607Z,97005.56
2023-03-06T22:10:00.107Z,97006.44
2023-03-06T22:13:49.841Z,97009.59
2023-03-06T22:17:56.852Z,97015.44
2023-03-06T22:21:29.737Z,97005.66
2023-03-06T22:25:40.874Z,97010.97
2023-03-06T22:29:48.232Z,97010.72
2023-03-06T22:34:25.218Z,97007.47
2023-03-06T22:37:43.933Z,97004.97
2023-03-06T22:41:25.941Z,97000.69
2023-03-06T22:45:36.445Z,97002.00
2023-03-06T22:49:54.234Z,96998.06
2023-03-06T22:53:25.502Z,97001.53
2023-03-06T22:57:30.728Z,96998.63
2023-03-06T23:01:33.446Z,97004.09
2023-03-06T23:05:11.125Z,97018.97
2023-03-06T23:09:20.724Z,97013.56
2023-03-06T23:17:45.809Z,97010.59
2023-03-06T23:22:24.529Z,97012.19
2023-03-06T23:31:14.461Z,97030.38
2023-03-06T23:35:42.342Z,97030.25
2023-03-06T23:40:18.249Z,97020.66
2023-03-06T23:44:18.929Z,97020.91
2023-03-06T23:48:27.475Z,97030.34
2023-03-06T23:52:02.301Z,97023.44
2023-03-06T23:55:25.906Z,97021.91
2023-03-06T23:59:33.682Z,97023.75
